sensor_id;sensor_type;location;lat;lon;timestamp;P1;durP1;ratioP1;P2;durP2;ratioP2
53977;SDS011;39886;47.984;-1.586;2023-12-20T00:00:58;2.25;;;1.35;;
53977;SDS011;39886;47.984;-1.586;2023-12-20T00:03:24;2.80;;;1.50;;
53977;SDS011;39886;47.984;-1.586;2023-12-20T00:05:50;1.33;;;1.23;;
53977;SDS011;39886;47.984;-1.586;2023-12-20T00:08:16;2.72;;;1.42;;
53977;SDS011;39886;47.984;-1.586;2023-12-20T00:10:43;2.38;;;1.42;;
53977;SDS011;39886;47.984;-1.586;2023-12-20T00:13:09;1.98;;;1.33;;
53977;SDS011;39886;47.984;-1.586;2023-12-20T00:15:35;2.15;;;1.33;;
53977;SDS011;39886;47.984;-1.586;2023-12-20T00:18:00;3.92;;;1.40;;
53977;SDS011;39886;47.984;-1.586;2023-12-20T00:20:26;2.38;;;1.58;;
53977;SDS011;39886;47.984;-1.586;2023-12-20T00:22:54;1.58;;;1.30;;
53977;SDS011;39886;47.984;-1.586;2023-12-20T00:25:23;1.90;;;1.38;;
53977;SDS011;39886;47.984;-1.586;2023-12-20T00:27:50;2.00;;;1.27;;
53977;SDS011;39886;47.984;-1.586;2023-12-20T00:30:15;2.13;;;1.10;;
53977;SDS011;39886;47.984;-1.586;2023-12-20T00:32:41;2.10;;;1.15;;
53977;SDS011;39886;47.984;-1.586;2023-12-20T00:35:14;1.75;;;1.35;;
53977;SDS011;39886;47.984;-1.586;2023-12-20T00:37:40;1.70;;;1.05;;
53977;SDS011;39886;47.984;-1.586;2023-12-20T00:40:06;2.30;;;1.40;;
53977;SDS011;39886;47.984;-1.586;2023-12-20T00:42:32;1.40;;;1.30;;
53977;SDS011;39886;47.984;-1.586;2023-12-20T00:44:58;1.92;;;1.40;;
53977;SDS011;39886;47.984;-1.586;2023-12-20T00:47:24;1.40;;;1.30;;
53977;SDS011;39886;47.984;-1.586;2023-12-20T00:49:50;2.25;;;1.42;;
53977;SDS011;39886;47.984;-1.586;2023-12-20T00:52:16;2.22;;;1.20;;
53977;SDS011;39886;47.984;-1.586;2023-12-20T00:54:44;1.88;;;1.20;;
53977;SDS011;39886;47.984;-1.586;2023-12-20T00:57:10;3.38;;;1.30;;
53977;SDS011;39886;47.984;-1.586;2023-12-20T00:59:36;2.35;;;1.50;;
53977;SDS011;39886;47.984;-1.586;2023-12-20T01:02:02;1.70;;;1.40;;
53977;SDS011;39886;47.984;-1.586;2023-12-20T01:04:27;2.63;;;1.30;;
53977;SDS011;39886;47.984;-1.586;2023-12-20T01:06:53;1.80;;;1.30;;
53977;SDS011;39886;47.984;-1.586;2023-12-20T01:09:19;1.70;;;1.20;;
53977;SDS011;39886;47.984;-1.586;2023-12-20T01:11:48;1.60;;;1.27;;
53977;SDS011;39886;47.984;-1.586;2023-12-20T01:14:14;1.92;;;1.40;;
53977;SDS011;39886;47.984;-1.586;2023-12-20T01:16:39;1.88;;;1.17;;
53977;SDS011;39886;47.984;-1.586;2023-12-20T01:19:05;1.63;;;1.30;;
53977;SDS011;39886;47.984;-1.586;2023-12-20T01:21:31;2.58;;;1.30;;
53977;SDS011;39886;47.984;-1.586;2023-12-20T01:23:57;1.45;;;1.20;;
53977;SDS011;39886;47.984;-1.586;2023-12-20T01:26:23;1.42;;;1.20;;
53977;SDS011;39886;47.984;-1.586;2023-12-20T01:28:49;1.58;;;1.05;;
53977;SDS011;39886;47.984;-1.586;2023-12-20T01:31:14;1.50;;;1.23;;
53977;SDS011;39886;47.984;-1.586;2023-12-20T01:33:40;1.42;;;1.20;;
53977;SDS011;39886;47.984;-1.586;2023-12-20T01:36:06;1.83;;;1.20;;
53977;SDS011;39886;47.984;-1.586;2023-12-20T01:38:31;2.13;;;1.33;;
53977;SDS011;39886;47.984;-1.586;2023-12-20T01:40:57;1.60;;;1.00;;
53977;SDS011;39886;47.984;-1.586;2023-12-20T01:43:24;1.00;;;0.90;;
53977;SDS011;39886;47.984;-1.586;2023-12-20T01:45:49;1.58;;;1.20;;
53977;SDS011;39886;47.984;-1.586;2023-12-20T01:48:15;2.05;;;1.30;;
53977;SDS011;39886;47.984;-1.586;2023-12-20T01:50:42;1.95;;;1.30;;
53977;SDS011;39886;47.984;-1.586;2023-12-20T01:53:09;1.58;;;1.20;;
53977;SDS011;39886;47.984;-1.586;2023-12-20T01:55:38;1.20;;;1.10;;
53977;SDS011;39886;47.984;-1.586;2023-12-20T01:58:05;3.40;;;1.40;;
53977;SDS011;39886;47.984;-1.586;2023-12-20T02:00:36;1.25;;;1.10;;
53977;SDS011;39886;47.984;-1.586;2023-12-20T02:03:02;1.65;;;1.27;;
53977;SDS011;39886;47.984;-1.586;2023-12-20T02:05:32;1.20;;;1.10;;
53977;SDS011;39886;47.984;-1.586;2023-12-20T02:07:59;1.75;;;1.25;;
53977;SDS011;39886;47.984;-1.586;2023-12-20T02:10:25;1.88;;;1.30;;
53977;SDS011;39886;47.984;-1.586;2023-12-20T02:12:51;2.22;;;1.20;;
53977;SDS011;39886;47.984;-1.586;2023-12-20T02:15:16;2.63;;;1.35;;
53977;SDS011;39886;47.984;-1.586;2023-12-20T02:17:42;4.03;;;1.40;;
53977;SDS011;39886;47.984;-1.586;2023-12-20T02:20:10;3.00;;;1.30;;
53977;SDS011;39886;47.984;-1.586;2023-12-20T02:22:36;2.22;;;1.40;;
53977;SDS011;39886;47.984;-1.586;2023-12-20T02:25:01;1.92;;;1.30;;
53977;SDS011;39886;47.984;-1.586;2023-12-20T02:27:27;1.98;;;1.35;;
53977;SDS011;39886;47.984;-1.586;2023-12-20T02:29:54;3.00;;;1.60;;
53977;SDS011;39886;47.984;-1.586;2023-12-20T02:32:20;1.95;;;1.33;;
53977;SDS011;39886;47.984;-1.586;2023-12-20T02:34:47;2.28;;;1.40;;
53977;SDS011;39886;47.984;-1.586;2023-12-20T02:37:13;2.35;;;1.20;;
53977;SDS011;39886;47.984;-1.586;2023-12-20T02:39:39;1.50;;;1.13;;
53977;SDS011;39886;47.984;-1.586;2023-12-20T02:42:05;2.70;;;1.40;;
53977;SDS011;39886;47.984;-1.586;2023-12-20T02:44:31;2.45;;;1.40;;
53977;SDS011;39886;47.984;-1.586;2023-12-20T02:46:56;1.30;;;1.20;;
53977;SDS011;39886;47.984;-1.586;2023-12-20T02:49:22;1.90;;;1.20;;
53977;SDS011;39886;47.984;-1.586;2023-12-20T02:51:48;1.50;;;1.20;;
53977;SDS011;39886;47.984;-1.586;2023-12-20T02:54:13;1.42;;;1.27;;
53977;SDS011;39886;47.984;-1.586;2023-12-20T02:56:39;1.73;;;1.30;;
53977;SDS011;39886;47.984;-1.586;2023-12-20T02:59:05;2.97;;;1.40;;
53977;SDS011;39886;47.984;-1.586;2023-12-20T03:01:31;1.30;;;1.20;;
53977;SDS011;39886;47.984;-1.586;2023-12-20T03:03:57;2.08;;;1.20;;
53977;SDS011;39886;47.984;-1.586;2023-12-20T03:06:22;3.45;;;1.35;;
53977;SDS011;39886;47.984;-1.586;2023-12-20T03:08:48;2.10;;;1.23;;
53977;SDS011;39886;47.984;-1.586;2023-12-20T03:11:14;1.67;;;1.15;;
53977;SDS011;39886;47.984;-1.586;2023-12-20T03:13:40;1.75;;;1.17;;
53977;SDS011;39886;47.984;-1.586;2023-12-20T03:16:09;2.40;;;1.30;;
53977;SDS011;39886;47.984;-1.586;2023-12-20T03:18:37;1.98;;;1.13;;
53977;SDS011;39886;47.984;-1.586;2023-12-20T03:21:04;1.45;;;1.30;;
53977;SDS011;39886;47.984;-1.586;2023-12-20T03:23:30;1.10;;;1.00;;
53977;SDS011;39886;47.984;-1.586;2023-12-20T03:25:59;1.40;;;0.95;;
53977;SDS011;39886;47.984;-1.586;2023-12-20T03:28:29;1.25;;;1.00;;
53977;SDS011;39886;47.984;-1.586;2023-12-20T03:30:55;1.92;;;1.08;;
53977;SDS011;39886;47.984;-1.586;2023-12-20T03:33:20;1.20;;;1.00;;
53977;SDS011;39886;47.984;-1.586;2023-12-20T03:35:46;1.40;;;1.17;;
53977;SDS011;39886;47.984;-1.586;2023-12-20T03:38:12;2.95;;;1.40;;
53977;SDS011;39886;47.984;-1.586;2023-12-20T03:40:37;1.85;;;1.33;;
53977;SDS011;39886;47.984;-1.586;2023-12-20T03:43:04;1.08;;;0.98;;
53977;SDS011;39886;47.984;-1.586;2023-12-20T03:45:30;2.45;;;1.20;;
53977;SDS011;39886;47.984;-1.586;2023-12-20T03:47:55;1.08;;;0.90;;
53977;SDS011;39886;47.984;-1.586;2023-12-20T03:50:24;2.03;;;1.17;;
53977;SDS011;39886;47.984;-1.586;2023-12-20T03:52:51;1.17;;;1.05;;
53977;SDS011;39886;47.984;-1.586;2023-12-20T03:55:16;1.73;;;1.10;;
53977;SDS011;39886;47.984;-1.586;2023-12-20T03:57:42;2.05;;;1.13;;
53977;SDS011;39886;47.984;-1.586;2023-12-20T04:00:08;1.80;;;1.30;;
53977;SDS011;39886;47.984;-1.586;2023-12-20T04:02:38;1.40;;;1.30;;
53977;SDS011;39886;47.984;-1.586;2023-12-20T04:05:08;1.92;;;1.02;;
53977;SDS011;39886;47.984;-1.586;2023-12-20T04:07:37;1.80;;;1.10;;
53977;SDS011;39886;47.984;-1.586;2023-12-20T04:10:04;1.00;;;1.00;;
53977;SDS011;39886;47.984;-1.586;2023-12-20T04:12:30;1.95;;;1.13;;
53977;SDS011;39886;47.984;-1.586;2023-12-20T04:14:56;1.23;;;1.10;;
53977;SDS011;39886;47.984;-1.586;2023-12-20T04:17:22;1.92;;;1.15;;
53977;SDS011;39886;47.984;-1.586;2023-12-20T04:19:48;1.38;;;1.00;;
53977;SDS011;39886;47.984;-1.586;2023-12-20T04:22:15;1.35;;;1.20;;
53977;SDS011;39886;47.984;-1.586;2023-12-20T04:24:40;1.80;;;1.10;;
53977;SDS011;39886;47.984;-1.586;2023-12-20T04:27:09;1.20;;;1.10;;
53977;SDS011;39886;47.984;-1.586;2023-12-20T04:29:35;2.78;;;1.15;;
53977;SDS011;39886;47.984;-1.586;2023-12-20T04:32:01;2.38;;;1.10;;
53977;SDS011;39886;47.984;-1.586;2023-12-20T04:34:26;1.83;;;1.10;;
53977;SDS011;39886;47.984;-1.586;2023-12-20T04:36:52;1.10;;;0.90;;
53977;SDS011;39886;47.984;-1.586;2023-12-20T04:39:18;2.42;;;1.00;;
53977;SDS011;39886;47.984;-1.586;2023-12-20T04:41:44;0.95;;;0.90;;
53977;SDS011;39886;47.984;-1.586;2023-12-20T04:44:10;1.50;;;0.80;;
53977;SDS011;39886;47.984;-1.586;2023-12-20T04:46:36;1.42;;;1.00;;
53977;SDS011;39886;47.984;-1.586;2023-12-20T04:49:01;1.55;;;1.08;;
53977;SDS011;39886;47.984;-1.586;2023-12-20T04:51:27;1.48;;;1.05;;
53977;SDS011;39886;47.984;-1.586;2023-12-20T04:53:53;1.55;;;1.02;;
53977;SDS011;39886;47.984;-1.586;2023-12-20T04:56:18;1.75;;;1.17;;
53977;SDS011;39886;47.984;-1.586;2023-12-20T04:58:44;1.00;;;0.88;;
53977;SDS011;39886;47.984;-1.586;2023-12-20T05:01:10;1.30;;;1.00;;
53977;SDS011;39886;47.984;-1.586;2023-12-20T05:03:36;1.27;;;1.17;;
53977;SDS011;39886;47.984;-1.586;2023-12-20T05:06:02;1.92;;;1.15;;
53977;SDS011;39886;47.984;-1.586;2023-12-20T05:08:28;1.85;;;1.10;;
53977;SDS011;39886;47.984;-1.586;2023-12-20T05:10:54;1.10;;;1.00;;
53977;SDS011;39886;47.984;-1.586;2023-12-20T05:13:20;1.10;;;1.00;;
53977;SDS011;39886;47.984;-1.586;2023-12-20T05:15:46;1.95;;;0.98;;
53977;SDS011;39886;47.984;-1.586;2023-12-20T05:18:12;2.83;;;1.17;;
53977;SDS011;39886;47.984;-1.586;2023-12-20T05:20:38;1.30;;;1.00;;
53977;SDS011;39886;47.984;-1.586;2023-12-20T05:23:04;1.20;;;0.90;;
53977;SDS011;39886;47.984;-1.586;2023-12-20T05:25:30;1.63;;;0.90;;
53977;SDS011;39886;47.984;-1.586;2023-12-20T05:27:56;2.05;;;1.33;;
53977;SDS011;39886;47.984;-1.586;2023-12-20T05:30:21;1.20;;;0.90;;
53977;SDS011;39886;47.984;-1.586;2023-12-20T05:32:47;1.05;;;0.90;;
53977;SDS011;39886;47.984;-1.586;2023-12-20T05:35:13;1.27;;;0.80;;
53977;SDS011;39886;47.984;-1.586;2023-12-20T05:37:39;1.63;;;1.10;;
53977;SDS011;39886;47.984;-1.586;2023-12-20T05:40:04;1.98;;;1.10;;
53977;SDS011;39886;47.984;-1.586;2023-12-20T05:42:31;1.92;;;0.95;;
53977;SDS011;39886;47.984;-1.586;2023-12-20T05:44:56;1.08;;;0.98;;
53977;SDS011;39886;47.984;-1.586;2023-12-20T05:47:22;0.98;;;0.85;;
53977;SDS011;39886;47.984;-1.586;2023-12-20T05:49:48;1.42;;;0.85;;
53977;SDS011;39886;47.984;-1.586;2023-12-20T05:52:15;1.70;;;1.02;;
53977;SDS011;39886;47.984;-1.586;2023-12-20T05:54:40;1.27;;;1.08;;
53977;SDS011;39886;47.984;-1.586;2023-12-20T05:57:06;0.90;;;0.90;;
53977;SDS011;39886;47.984;-1.586;2023-12-20T05:59:32;1.13;;;0.90;;
53977;SDS011;39886;47.984;-1.586;2023-12-20T06:01:57;1.75;;;1.10;;
53977;SDS011;39886;47.984;-1.586;2023-12-20T06:04:23;1.20;;;0.90;;
53977;SDS011;39886;47.984;-1.586;2023-12-20T06:06:49;0.82;;;0.82;;
53977;SDS011;39886;47.984;-1.586;2023-12-20T06:09:14;3.60;;;1.02;;
53977;SDS011;39886;47.984;-1.586;2023-12-20T06:11:40;1.08;;;0.98;;
53977;SDS011;39886;47.984;-1.586;2023-12-20T06:14:06;2.00;;;0.90;;
53977;SDS011;39886;47.984;-1.586;2023-12-20T06:16:32;1.30;;;0.93;;
53977;SDS011;39886;47.984;-1.586;2023-12-20T06:18:57;2.03;;;1.10;;
53977;SDS011;39886;47.984;-1.586;2023-12-20T06:21:23;1.13;;;0.90;;
53977;SDS011;39886;47.984;-1.586;2023-12-20T06:23:49;1.70;;;0.88;;
53977;SDS011;39886;47.984;-1.586;2023-12-20T06:26:15;1.27;;;0.90;;
53977;SDS011;39886;47.984;-1.586;2023-12-20T06:28:40;1.20;;;0.93;;
53977;SDS011;39886;47.984;-1.586;2023-12-20T06:31:06;0.98;;;0.95;;
53977;SDS011;39886;47.984;-1.586;2023-12-20T06:33:32;1.30;;;1.00;;
53977;SDS011;39886;47.984;-1.586;2023-12-20T06:35:58;1.70;;;0.90;;
53977;SDS011;39886;47.984;-1.586;2023-12-20T06:38:23;1.13;;;1.00;;
53977;SDS011;39886;47.984;-1.586;2023-12-20T06:40:49;0.77;;;0.77;;
53977;SDS011;39886;47.984;-1.586;2023-12-20T06:43:15;1.05;;;0.85;;
53977;SDS011;39886;47.984;-1.586;2023-12-20T06:45:40;1.33;;;0.90;;
53977;SDS011;39886;47.984;-1.586;2023-12-20T06:48:06;1.67;;;1.00;;
53977;SDS011;39886;47.984;-1.586;2023-12-20T06:50:32;1.70;;;1.00;;
53977;SDS011;39886;47.984;-1.586;2023-12-20T06:52:58;1.83;;;1.00;;
53977;SDS011;39886;47.984;-1.586;2023-12-20T06:55:24;1.38;;;0.75;;
53977;SDS011;39886;47.984;-1.586;2023-12-20T06:57:49;2.83;;;1.10;;
53977;SDS011;39886;47.984;-1.586;2023-12-20T07:00:15;1.02;;;0.90;;
53977;SDS011;39886;47.984;-1.586;2023-12-20T07:02:41;1.52;;;1.20;;
53977;SDS011;39886;47.984;-1.586;2023-12-20T07:05:08;1.35;;;1.00;;
53977;SDS011;39886;47.984;-1.586;2023-12-20T07:07:34;1.15;;;0.85;;
53977;SDS011;39886;47.984;-1.586;2023-12-20T07:10:00;1.23;;;1.00;;
53977;SDS011;39886;47.984;-1.586;2023-12-20T07:12:25;1.52;;;0.90;;
53977;SDS011;39886;47.984;-1.586;2023-12-20T07:14:51;2.42;;;0.95;;
53977;SDS011;39886;47.984;-1.586;2023-12-20T07:17:17;1.10;;;1.00;;
53977;SDS011;39886;47.984;-1.586;2023-12-20T07:19:42;1.98;;;1.00;;
53977;SDS011;39886;47.984;-1.586;2023-12-20T07:22:08;1.40;;;1.00;;
53977;SDS011;39886;47.984;-1.586;2023-12-20T07:24:34;1.48;;;1.02;;
53977;SDS011;39886;47.984;-1.586;2023-12-20T07:27:00;1.73;;;0.80;;
53977;SDS011;39886;47.984;-1.586;2023-12-20T07:29:26;1.25;;;0.82;;
53977;SDS011;39886;47.984;-1.586;2023-12-20T07:31:54;0.80;;;0.80;;
53977;SDS011;39886;47.984;-1.586;2023-12-20T07:34:20;2.22;;;1.10;;
53977;SDS011;39886;47.984;-1.586;2023-12-20T07:36:46;1.45;;;1.10;;
53977;SDS011;39886;47.984;-1.586;2023-12-20T07:39:12;2.38;;;1.10;;
53977;SDS011;39886;47.984;-1.586;2023-12-20T07:41:38;3.33;;;0.98;;
53977;SDS011;39886;47.984;-1.586;2023-12-20T07:44:04;1.25;;;0.70;;
53977;SDS011;39886;47.984;-1.586;2023-12-20T07:46:30;1.95;;;0.95;;
53977;SDS011;39886;47.984;-1.586;2023-12-20T07:48:56;2.47;;;1.00;;
53977;SDS011;39886;47.984;-1.586;2023-12-20T07:51:21;2.00;;;0.93;;
53977;SDS011;39886;47.984;-1.586;2023-12-20T07:53:47;1.58;;;1.05;;
53977;SDS011;39886;47.984;-1.586;2023-12-20T07:56:16;1.50;;;0.80;;
53977;SDS011;39886;47.984;-1.586;2023-12-20T07:58:43;2.95;;;1.08;;
53977;SDS011;39886;47.984;-1.586;2023-12-20T08:01:10;1.00;;;0.75;;
53977;SDS011;39886;47.984;-1.586;2023-12-20T08:03:36;1.92;;;0.90;;
53977;SDS011;39886;47.984;-1.586;2023-12-20T08:06:03;1.55;;;0.88;;
53977;SDS011;39886;47.984;-1.586;2023-12-20T08:08:29;1.17;;;0.90;;
53977;SDS011;39886;47.984;-1.586;2023-12-20T08:10:54;1.90;;;1.10;;
53977;SDS011;39886;47.984;-1.586;2023-12-20T08:13:22;1.63;;;0.93;;
53977;SDS011;39886;47.984;-1.586;2023-12-20T08:15:51;2.65;;;1.25;;
53977;SDS011;39886;47.984;-1.586;2023-12-20T08:18:17;2.15;;;0.90;;
53977;SDS011;39886;47.984;-1.586;2023-12-20T08:20:42;1.40;;;0.98;;
53977;SDS011;39886;47.984;-1.586;2023-12-20T08:23:08;1.55;;;0.90;;
53977;SDS011;39886;47.984;-1.586;2023-12-20T08:25:34;2.17;;;0.85;;
53977;SDS011;39886;47.984;-1.586;2023-12-20T08:28:00;1.67;;;0.65;;
53977;SDS011;39886;47.984;-1.586;2023-12-20T08:30:27;2.78;;;0.90;;
53977;SDS011;39886;47.984;-1.586;2023-12-20T08:32:53;3.13;;;1.10;;
53977;SDS011;39886;47.984;-1.586;2023-12-20T08:35:18;1.75;;;0.93;;
53977;SDS011;39886;47.984;-1.586;2023-12-20T08:37:45;1.77;;;1.00;;
53977;SDS011;39886;47.984;-1.586;2023-12-20T08:40:10;1.52;;;0.77;;
53977;SDS011;39886;47.984;-1.586;2023-12-20T08:42:36;1.05;;;0.80;;
53977;SDS011;39886;47.984;-1.586;2023-12-20T08:45:02;4.35;;;1.00;;
53977;SDS011;39886;47.984;-1.586;2023-12-20T08:47:29;2.63;;;1.15;;
53977;SDS011;39886;47.984;-1.586;2023-12-20T08:49:55;8.15;;;1.20;;
53977;SDS011;39886;47.984;-1.586;2023-12-20T08:52:23;4.25;;;1.20;;
53977;SDS011;39886;47.984;-1.586;2023-12-20T08:54:49;4.95;;;1.10;;
53977;SDS011;39886;47.984;-1.586;2023-12-20T08:57:21;2.03;;;1.08;;
53977;SDS011;39886;47.984;-1.586;2023-12-20T08:59:49;2.88;;;1.35;;
53977;SDS011;39886;47.984;-1.586;2023-12-20T09:02:15;3.38;;;1.10;;
53977;SDS011;39886;47.984;-1.586;2023-12-20T09:04:41;2.53;;;1.00;;
53977;SDS011;39886;47.984;-1.586;2023-12-20T09:07:20;2.15;;;0.90;;
53977;SDS011;39886;47.984;-1.586;2023-12-20T09:09:49;3.50;;;1.08;;
53977;SDS011;39886;47.984;-1.586;2023-12-20T09:12:15;1.73;;;0.80;;
53977;SDS011;39886;47.984;-1.586;2023-12-20T09:14:41;2.30;;;0.98;;
53977;SDS011;39886;47.984;-1.586;2023-12-20T09:17:07;2.60;;;0.82;;
53977;SDS011;39886;47.984;-1.586;2023-12-20T09:19:34;4.57;;;1.10;;
53977;SDS011;39886;47.984;-1.586;2023-12-20T09:21:59;2.78;;;0.98;;
53977;SDS011;39886;47.984;-1.586;2023-12-20T09:24:26;3.10;;;0.98;;
53977;SDS011;39886;47.984;-1.586;2023-12-20T09:26:52;2.22;;;1.15;;
53977;SDS011;39886;47.984;-1.586;2023-12-20T09:29:17;2.53;;;1.10;;
53977;SDS011;39886;47.984;-1.586;2023-12-20T09:31:44;2.42;;;0.95;;
53977;SDS011;39886;47.984;-1.586;2023-12-20T09:34:11;2.10;;;0.85;;
53977;SDS011;39886;47.984;-1.586;2023-12-20T09:36:37;2.63;;;1.13;;
53977;SDS011;39886;47.984;-1.586;2023-12-20T09:39:05;4.35;;;1.27;;
53977;SDS011;39886;47.984;-1.586;2023-12-20T09:41:31;3.35;;;0.88;;
53977;SDS011;39886;47.984;-1.586;2023-12-20T09:44:02;1.38;;;0.98;;
53977;SDS011;39886;47.984;-1.586;2023-12-20T09:46:28;2.97;;;1.20;;
53977;SDS011;39886;47.984;-1.586;2023-12-20T09:48:58;3.03;;;1.20;;
53977;SDS011;39886;47.984;-1.586;2023-12-20T09:51:26;3.58;;;1.45;;
53977;SDS011;39886;47.984;-1.586;2023-12-20T09:53:54;1.15;;;1.02;;
53977;SDS011;39886;47.984;-1.586;2023-12-20T09:56:21;5.72;;;1.23;;
53977;SDS011;39886;47.984;-1.586;2023-12-20T09:58:47;3.60;;;1.30;;
53977;SDS011;39886;47.984;-1.586;2023-12-20T10:01:13;4.28;;;1.30;;
53977;SDS011;39886;47.984;-1.586;2023-12-20T10:03:41;2.22;;;1.25;;
53977;SDS011;39886;47.984;-1.586;2023-12-20T10:06:07;4.50;;;1.30;;
53977;SDS011;39886;47.984;-1.586;2023-12-20T10:08:33;2.15;;;1.38;;
53977;SDS011;39886;47.984;-1.586;2023-12-20T10:10:59;3.75;;;1.38;;
53977;SDS011;39886;47.984;-1.586;2023-12-20T10:13:27;6.97;;;1.52;;
53977;SDS011;39886;47.984;-1.586;2023-12-20T10:15:54;2.08;;;1.08;;
53977;SDS011;39886;47.984;-1.586;2023-12-20T10:18:21;3.65;;;1.40;;
53977;SDS011;39886;47.984;-1.586;2023-12-20T10:20:46;2.70;;;1.02;;
53977;SDS011;39886;47.984;-1.586;2023-12-20T10:23:13;3.50;;;1.50;;
53977;SDS011;39886;47.984;-1.586;2023-12-20T10:25:42;1.92;;;1.27;;
53977;SDS011;39886;47.984;-1.586;2023-12-20T10:28:09;2.15;;;1.38;;
53977;SDS011;39886;47.984;-1.586;2023-12-20T10:30:40;3.13;;;1.20;;
53977;SDS011;39886;47.984;-1.586;2023-12-20T10:33:06;3.78;;;1.48;;
53977;SDS011;39886;47.984;-1.586;2023-12-20T10:35:36;3.95;;;1.63;;
53977;SDS011;39886;47.984;-1.586;2023-12-20T10:38:05;3.97;;;1.60;;
53977;SDS011;39886;47.984;-1.586;2023-12-20T10:40:35;7.60;;;1.42;;
53977;SDS011;39886;47.984;-1.586;2023-12-20T10:43:02;3.13;;;1.38;;
53977;SDS011;39886;47.984;-1.586;2023-12-20T10:45:29;5.63;;;1.50;;
53977;SDS011;39886;47.984;-1.586;2023-12-20T10:47:54;7.22;;;1.67;;
53977;SDS011;39886;47.984;-1.586;2023-12-20T10:50:24;5.25;;;1.60;;
53977;SDS011;39886;47.984;-1.586;2023-12-20T10:52:51;4.32;;;1.50;;
53977;SDS011;39886;47.984;-1.586;2023-12-20T10:55:21;3.90;;;1.65;;
53977;SDS011;39886;47.984;-1.586;2023-12-20T10:57:48;3.17;;;1.30;;
53977;SDS011;39886;47.984;-1.586;2023-12-20T11:00:17;3.25;;;1.50;;
53977;SDS011;39886;47.984;-1.586;2023-12-20T11:02:43;4.78;;;1.60;;
53977;SDS011;39886;47.984;-1.586;2023-12-20T11:05:22;3.22;;;1.65;;
53977;SDS011;39886;47.984;-1.586;2023-12-20T11:08:02;3.22;;;1.50;;
53977;SDS011;39886;47.984;-1.586;2023-12-20T11:10:41;5.05;;;1.55;;
53977;SDS011;39886;47.984;-1.586;2023-12-20T11:13:17;3.83;;;1.75;;
53977;SDS011;39886;47.984;-1.586;2023-12-20T11:15:47;3.38;;;1.30;;
53977;SDS011;39886;47.984;-1.586;2023-12-20T11:18:14;3.50;;;1.40;;
53977;SDS011;39886;47.984;-1.586;2023-12-20T11:20:41;2.72;;;1.45;;
53977;SDS011;39886;47.984;-1.586;2023-12-20T11:23:10;4.35;;;1.48;;
53977;SDS011;39886;47.984;-1.586;2023-12-20T11:25:48;3.75;;;1.42;;
53977;SDS011;39886;47.984;-1.586;2023-12-20T11:28:20;3.63;;;1.67;;
53977;SDS011;39886;47.984;-1.586;2023-12-20T11:30:47;8.07;;;1.60;;
53977;SDS011;39886;47.984;-1.586;2023-12-20T11:33:23;6.68;;;1.77;;
53977;SDS011;39886;47.984;-1.586;2023-12-20T11:35:51;6.88;;;1.75;;
53977;SDS011;39886;47.984;-1.586;2023-12-20T11:38:20;3.45;;;1.30;;
53977;SDS011;39886;47.984;-1.586;2023-12-20T11:40:47;4.03;;;1.48;;
53977;SDS011;39886;47.984;-1.586;2023-12-20T11:43:29;4.85;;;1.77;;
53977;SDS011;39886;47.984;-1.586;2023-12-20T11:46:07;3.65;;;1.45;;
53977;SDS011;39886;47.984;-1.586;2023-12-20T11:48:37;3.78;;;1.40;;
53977;SDS011;39886;47.984;-1.586;2023-12-20T11:51:11;3.60;;;1.88;;
53977;SDS011;39886;47.984;-1.586;2023-12-20T11:53:37;5.25;;;1.55;;
53977;SDS011;39886;47.984;-1.586;2023-12-20T11:56:05;4.35;;;1.63;;
53977;SDS011;39886;47.984;-1.586;2023-12-20T11:58:32;3.25;;;1.58;;
53977;SDS011;39886;47.984;-1.586;2023-12-20T12:00:58;3.22;;;1.30;;
53977;SDS011;39886;47.984;-1.586;2023-12-20T12:03:24;3.22;;;1.25;;
53977;SDS011;39886;47.984;-1.586;2023-12-20T12:05:49;3.03;;;1.38;;
53977;SDS011;39886;47.984;-1.586;2023-12-20T12:08:16;2.25;;;1.70;;
53977;SDS011;39886;47.984;-1.586;2023-12-20T12:10:43;6.22;;;1.60;;
53977;SDS011;39886;47.984;-1.586;2023-12-20T12:13:09;2.33;;;1.40;;
53977;SDS011;39886;47.984;-1.586;2023-12-20T12:15:36;4.07;;;1.50;;
53977;SDS011;39886;47.984;-1.586;2023-12-20T12:18:02;4.65;;;1.90;;
53977;SDS011;39886;47.984;-1.586;2023-12-20T12:20:30;4.53;;;1.77;;
53977;SDS011;39886;47.984;-1.586;2023-12-20T12:23:02;3.88;;;1.70;;
53977;SDS011;39886;47.984;-1.586;2023-12-20T12:25:29;3.30;;;1.40;;
53977;SDS011;39886;47.984;-1.586;2023-12-20T12:27:56;5.55;;;2.15;;
53977;SDS011;39886;47.984;-1.586;2023-12-20T12:30:23;4.45;;;2.03;;
53977;SDS011;39886;47.984;-1.586;2023-12-20T12:32:50;10.85;;;2.03;;
53977;SDS011;39886;47.984;-1.586;2023-12-20T12:35:17;6.22;;;1.90;;
53977;SDS011;39886;47.984;-1.586;2023-12-20T12:37:43;5.80;;;1.92;;
53977;SDS011;39886;47.984;-1.586;2023-12-20T12:40:09;3.20;;;1.92;;
53977;SDS011;39886;47.984;-1.586;2023-12-20T12:42:36;4.30;;;1.60;;
53977;SDS011;39886;47.984;-1.586;2023-12-20T12:45:06;3.70;;;1.45;;
53977;SDS011;39886;47.984;-1.586;2023-12-20T12:47:32;4.55;;;1.40;;
53977;SDS011;39886;47.984;-1.586;2023-12-20T12:49:59;4.15;;;1.98;;
53977;SDS011;39886;47.984;-1.586;2023-12-20T12:52:25;5.85;;;1.70;;
53977;SDS011;39886;47.984;-1.586;2023-12-20T12:54:51;4.40;;;1.52;;
53977;SDS011;39886;47.984;-1.586;2023-12-20T12:57:18;6.60;;;1.65;;
53977;SDS011;39886;47.984;-1.586;2023-12-20T12:59:44;4.03;;;1.58;;
53977;SDS011;39886;47.984;-1.586;2023-12-20T13:02:13;4.60;;;1.50;;
53977;SDS011;39886;47.984;-1.586;2023-12-20T13:04:40;4.30;;;1.70;;
53977;SDS011;39886;47.984;-1.586;2023-12-20T13:07:06;3.60;;;1.70;;
53977;SDS011;39886;47.984;-1.586;2023-12-20T13:09:32;2.72;;;1.50;;
53977;SDS011;39886;47.984;-1.586;2023-12-20T13:11:58;6.25;;;1.35;;
53977;SDS011;39886;47.984;-1.586;2023-12-20T13:14:24;4.20;;;1.40;;
53977;SDS011;39886;47.984;-1.586;2023-12-20T13:16:50;2.92;;;1.33;;
53977;SDS011;39886;47.984;-1.586;2023-12-20T13:19:16;7.35;;;1.65;;
53977;SDS011;39886;47.984;-1.586;2023-12-20T13:21:41;5.30;;;1.90;;
53977;SDS011;39886;47.984;-1.586;2023-12-20T13:24:07;4.28;;;1.70;;
53977;SDS011;39886;47.984;-1.586;2023-12-20T13:26:33;3.38;;;1.83;;
53977;SDS011;39886;47.984;-1.586;2023-12-20T13:28:59;4.93;;;1.67;;
53977;SDS011;39886;47.984;-1.586;2023-12-20T13:31:24;3.65;;;1.90;;
53977;SDS011;39886;47.984;-1.586;2023-12-20T13:33:50;4.18;;;1.60;;
53977;SDS011;39886;47.984;-1.586;2023-12-20T13:36:17;6.47;;;1.85;;
53977;SDS011;39886;47.984;-1.586;2023-12-20T13:38:43;3.13;;;1.70;;
53977;SDS011;39886;47.984;-1.586;2023-12-20T13:41:09;4.65;;;1.63;;
53977;SDS011;39886;47.984;-1.586;2023-12-20T13:43:34;5.63;;;1.48;;
53977;SDS011;39886;47.984;-1.586;2023-12-20T13:46:00;4.40;;;1.77;;
53977;SDS011;39886;47.984;-1.586;2023-12-20T13:48:26;5.13;;;1.83;;
53977;SDS011;39886;47.984;-1.586;2023-12-20T13:50:52;4.53;;;1.88;;
53977;SDS011;39886;47.984;-1.586;2023-12-20T13:53:19;4.03;;;1.70;;
53977;SDS011;39886;47.984;-1.586;2023-12-20T13:55:45;3.83;;;2.13;;
53977;SDS011;39886;47.984;-1.586;2023-12-20T13:58:11;3.65;;;1.50;;
53977;SDS011;39886;47.984;-1.586;2023-12-20T14:00:37;4.28;;;1.70;;
53977;SDS011;39886;47.984;-1.586;2023-12-20T14:03:03;7.38;;;1.88;;
53977;SDS011;39886;47.984;-1.586;2023-12-20T14:05:29;5.22;;;2.00;;
53977;SDS011;39886;47.984;-1.586;2023-12-20T14:07:55;2.80;;;1.60;;
53977;SDS011;39886;47.984;-1.586;2023-12-20T14:10:24;4.53;;;1.70;;
53977;SDS011;39886;47.984;-1.586;2023-12-20T14:12:51;3.47;;;1.55;;
53977;SDS011;39886;47.984;-1.586;2023-12-20T14:15:17;14.95;;;1.50;;
53977;SDS011;39886;47.984;-1.586;2023-12-20T14:17:43;4.70;;;1.73;;
53977;SDS011;39886;47.984;-1.586;2023-12-20T14:20:09;5.32;;;1.75;;
53977;SDS011;39886;47.984;-1.586;2023-12-20T14:22:37;3.03;;;1.40;;
53977;SDS011;39886;47.984;-1.586;2023-12-20T14:25:03;3.78;;;1.60;;
53977;SDS011;39886;47.984;-1.586;2023-12-20T14:27:29;4.22;;;1.98;;
53977;SDS011;39886;47.984;-1.586;2023-12-20T14:29:55;4.10;;;1.77;;